Time,TemperatureF,DewpointF,PressureIn,WindDirection,WindDirectionDegrees,WindSpeedMPH,WindSpeedGustMPH,Humidity,HourlyPrecipIn,Conditions,Clouds,dailyrainin,SoftwareType,DateUTC
2013-06-24 00:00:00,70.3,70.0,30.10,N/A,-327680,0.0,0.0,99,0.00,,,0.76,Wunderground PWS Mod,2013-06-24 04:00:00,
2013-06-24 00:05:00,70.3,70.0,30.10,N/A,-327680,0.0,0.0,99,0.00,,,0.76,Wunderground PWS Mod,2013-06-24 04:05:00,
2013-06-24 00:10:00,70.3,70.0,30.10,N/A,-327680,0.0,0.0,99,0.00,,,0.76,Wunderground PWS Mod,2013-06-24 04:10:00,
2013-06-24 00:15:00,70.3,70.0,30.10,N/A,-327680,0.0,0.0,99,0.00,,,0.76,Wunderground PWS Mod,2013-06-24 04:15:00,
2013-06-24 00:20:00,70.3,70.0,30.10,N/A,-327680,0.0,0.0,99,0.00,,,0.76,Wunderground PWS Mod,2013-06-24 04:20:00,
2013-06-24 00:25:00,70.3,70.0,30.10,N/A,-327680,0.0,0.0,99,0.00,,,0.76,Wunderground PWS Mod,2013-06-24 04:25:00,
2013-06-24 00:30:00,70.3,70.0,30.10,N/A,-327680,0.0,0.0,99,0.00,,,0.76,Wunderground PWS Mod,2013-06-24 04:30:00,
2013-06-24 00:35:00,70.3,70.0,30.10,N/A,-327680,0.0,0.0,99,0.00,,,0.76,Wunderground PWS Mod,2013-06-24 04:35:00,
2013-06-24 00:40:00,70.3,70.0,30.10,N/A,-327680,0.0,0.0,99,0.00,,,0.76,Wunderground PWS Mod,2013-06-24 04:40:00,
2013-06-24 00:45:00,70.4,70.1,30.10,N/A,-327680,0.0,0.0,99,0.00,,,0.76,Wunderground PWS Mod,2013-06-24 04:45:00,
2013-06-24 00:50:00,70.4,70.1,30.10,N/A,-327680,0.0,0.0,99,0.00,,,0.76,Wunderground PWS Mod,2013-06-24 04:50:00,
2013-06-24 00:55:00,70.4,70.1,30.10,N/A,-327680,0.0,0.0,99,0.00,,,0.76,Wunderground PWS Mod,2013-06-24 04:55:00,
2013-06-24 01:00:00,70.4,70.1,30.10,N/A,-327680,0.0,0.0,99,0.00,,,0.76,Wunderground PWS Mod,2013-06-24 05:00:00,
2013-06-24 01:05:00,70.4,70.1,30.10,N/A,-327680,0.0,0.0,99,0.00,,,0.76,Wunderground PWS Mod,2013-06-24 05:05:00,
2013-06-24 01:10:00,70.4,70.1,30.10,N/A,-327680,0.0,0.0,99,0.00,,,0.76,Wunderground PWS Mod,2013-06-24 05:10:00,
2013-06-24 01:15:00,70.4,70.4,30.10,N/A,-327680,0.0,0.0,100,0.00,,,0.76,Wunderground PWS Mod,2013-06-24 05:15:00,
2013-06-24 01:25:00,70.4,70.4,30.10,N/A,-327680,0.0,0.0,100,0.00,,,0.76,Wunderground PWS Mod,2013-06-24 05:25:00,
2013-06-24 01:30:00,70.4,70.4,30.10,N/A,-327680,0.0,0.0,100,0.00,,,0.76,Wunderground PWS Mod,2013-06-24 05:30:00,
2013-06-24 01:35:00,70.4,70.4,30.10,N/A,-327680,0.0,0.0,100,0.00,,,0.76,Wunderground PWS Mod,2013-06-24 05:35:00,
2013-06-24 01:40:00,70.4,70.4,30.10,N/A,-327680,0.0,0.0,100,0.00,,,0.76,Wunderground PWS Mod,2013-06-24 05:40:00,
2013-06-24 01:45:00,70.3,70.3,30.09,NE,40,0.0,1.0,100,0.00,,,0.76,Wunderground PWS Mod,2013-06-24 05:45:00,
2013-06-24 01:50:00,70.3,70.3,30.09,NE,40,0.0,1.0,100,0.00,,,0.76,Wunderground PWS Mod,2013-06-24 05:50:00,
2013-06-24 01:55:00,70.3,70.3,30.09,NE,40,0.0,1.0,100,0.00,,,0.76,Wunderground PWS Mod,2013-06-24 05:55:00,
2013-06-24 02:00:00,70.3,70.3,30.09,NE,40,0.0,1.0,100,0.00,,,0.76,Wunderground PWS Mod,2013-06-24 06:00:00,
2013-06-24 02:05:00,70.3,70.3,30.09,NE,40,0.0,1.0,100,0.00,,,0.76,Wunderground PWS Mod,2013-06-24 06:05:00,
2013-06-24 02:10:00,70.3,70.3,30.09,NE,40,0.0,1.0,100,0.00,,,0.76,Wunderground PWS Mod,2013-06-24 06:10:00,
2013-06-24 02:15:00,69.9,69.9,30.10,N/A,-327680,0.0,0.0,100,0.00,,,0.76,Wunderground PWS Mod,2013-06-24 06:15:00,
2013-06-24 02:20:00,69.9,69.9,30.10,N/A,-327680,0.0,0.0,100,0.00,,,0.76,Wunderground PWS Mod,2013-06-24 06:20:00,
2013-06-24 02:25:00,69.9,69.9,30.10,N/A,-327680,0.0,0.0,100,0.00,,,0.76,Wunderground PWS Mod,2013-06-24 06:25:00,
2013-06-24 02:30:00,69.9,69.9,30.10,N/A,-327680,0.0,0.0,100,0.00,,,0.76,Wunderground PWS Mod,2013-06-24 06:30:00,
2013-06-24 02:35:00,69.9,69.9,30.10,N/A,-327680,0.0,0.0,100,0.00,,,0.76,Wunderground PWS Mod,2013-06-24 06:35:00,
2013-06-24 02:40:00,69.9,69.9,30.10,N/A,-327680,0.0,0.0,100,0.00,,,0.76,Wunderground PWS Mod,2013-06-24 06:40:00,
2013-06-24 02:45:00,69.3,69.3,30.10,N/A,-327680,0.0,0.0,100,0.00,,,0.76,Wunderground PWS Mod,2013-06-24 06:45:00,
2013-06-24 02:50:00,69.3,69.3,30.10,N/A,-327680,0.0,0.0,100,0.00,,,0.76,Wunderground PWS Mod,2013-06-24 06:50:00,
2013-06-24 02:55:00,69.3,69.3,30.10,N/A,-327680,0.0,0.0,100,0.00,,,0.76,Wunderground PWS Mod,2013-06-24 06:55:00,
2013-06-24 03:00:00,69.3,69.3,30.10,N/A,-327680,0.0,0.0,100,0.00,,,0.76,Wunderground PWS Mod,2013-06-24 07:00:00,
2013-06-24 03:05:00,69.3,69.3,30.10,N/A,-327680,0.0,0.0,100,0.00,,,0.76,Wunderground PWS Mod,2013-06-24 07:05:00,
2013-06-24 03:10:00,69.3,69.3,30.10,N/A,-327680,0.0,0.0,100,0.00,,,0.76,Wunderground PWS Mod,2013-06-24 07:10:00,
2013-06-24 03:15:00,69.1,69.1,30.09,N/A,-327680,0.0,0.0,100,0.00,,,0.76,Wunderground PWS Mod,2013-06-24 07:15:00,
2013-06-24 03:20:00,69.1,69.1,30.09,N/A,-327680,0.0,0.0,100,0.00,,,0.76,Wunderground PWS Mod,2013-06-24 07:20:00,
2013-06-24 03:25:00,69.1,69.1,30.09,N/A,-327680,0.0,0.0,100,0.00,,,0.76,Wunderground PWS Mod,2013-06-24 07:25:00,
2013-06-24 03:30:00,69.1,69.1,30.09,N/A,-327680,0.0,0.0,100,0.00,,,0.76,Wunderground PWS Mod,2013-06-24 07:30:00,
2013-06-24 03:35:00,69.1,69.1,30.09,N/A,-327680,0.0,0.0,100,0.00,,,0.76,Wunderground PWS Mod,2013-06-24 07:35:00,
2013-06-24 03:40:00,69.1,69.1,30.09,N/A,-327680,0.0,0.0,100,0.00,,,0.76,Wunderground PWS Mod,2013-06-24 07:40:00,
2013-06-24 03:45:00,69.1,69.1,30.08,NE,40,0.0,1.0,100,0.00,,,0.76,Wunderground PWS Mod,2013-06-24 07:45:00,
2013-06-24 03:50:00,69.1,69.1,30.08,NE,40,0.0,1.0,100,0.00,,,0.76,Wunderground PWS Mod,2013-06-24 07:50:00,
2013-06-24 03:55:00,69.1,69.1,30.08,NE,40,0.0,1.0,100,0.00,,,0.76,Wunderground PWS Mod,2013-06-24 07:55:00,
2013-06-24 04:00:00,69.1,69.1,30.08,NE,40,0.0,1.0,100,0.00,,,0.76,Wunderground PWS Mod,2013-06-24 08:00:00,
2013-06-24 04:05:00,69.1,69.1,30.08,NE,40,0.0,1.0,100,0.00,,,0.76,Wunderground PWS Mod,2013-06-24 08:05:00,
2013-06-24 04:10:00,69.1,69.1,30.08,NE,40,0.0,1.0,100,0.00,,,0.76,Wunderground PWS Mod,2013-06-24 08:10:00,
2013-06-24 04:15:00,68.9,68.9,30.09,N/A,-327680,0.0,0.0,100,0.00,,,0.76,Wunderground PWS Mod,2013-06-24 08:15:00,
2013-06-24 04:20:00,68.9,68.9,30.09,N/A,-327680,0.0,0.0,100,0.00,,,0.76,Wunderground PWS Mod,2013-06-24 08:20:00,
2013-06-24 04:25:00,68.9,68.9,30.09,N/A,-327680,0.0,0.0,100,0.00,,,0.76,Wunderground PWS Mod,2013-06-24 08:25:00,
2013-06-24 04:30:00,68.9,68.9,30.09,N/A,-327680,0.0,0.0,100,0.00,,,0.76,Wunderground PWS Mod,2013-06-24 08:30:00,
2013-06-24 04:35:00,68.9,68.9,30.09,N/A,-327680,0.0,0.0,100,0.00,,,0.76,Wunderground PWS Mod,2013-06-24 08:35:00,
2013-06-24 04:40:00,68.9,68.9,30.09,N/A,-327680,0.0,0.0,100,0.00,,,0.76,Wunderground PWS Mod,2013-06-24 08:40:00,
2013-06-24 04:45:00,68.6,68.6,30.10,N/A,-327680,0.0,0.0,100,0.00,,,0.76,Wunderground PWS Mod,2013-06-24 08:45:00,
2013-06-24 04:50:00,68.6,68.6,30.10,N/A,-327680,0.0,0.0,100,0.00,,,0.76,Wunderground PWS Mod,2013-06-24 08:50:00,
2013-06-24 04:55:00,68.6,68.6,30.10,N/A,-327680,0.0,0.0,100,0.00,,,0.76,Wunderground PWS Mod,2013-06-24 08:55:00,
2013-06-24 05:00:00,68.6,68.6,30.10,N/A,-327680,0.0,0.0,100,0.00,,,0.76,Wunderground PWS Mod,2013-06-24 09:00:00,
2013-06-24 05:05:00,68.6,68.6,30.10,N/A,-327680,0.0,0.0,100,0.00,,,0.76,Wunderground PWS Mod,2013-06-24 09:05:00,
2013-06-24 05:10:00,68.6,68.6,30.10,N/A,-327680,0.0,0.0,100,0.00,,,0.76,Wunderground PWS Mod,2013-06-24 09:10:00,
2013-06-24 05:15:00,70.4,70.4,30.10,N/A,-327680,0.0,0.0,100,0.00,,,0.76,Wunderground PWS Mod,2013-06-24 09:15:00,
2013-06-24 05:20:00,70.4,70.4,30.10,N/A,-327680,0.0,0.0,100,0.00,,,0.76,Wunderground PWS Mod,2013-06-24 09:20:00,
2013-06-24 05:25:00,70.4,70.4,30.10,N/A,-327680,0.0,0.0,100,0.00,,,0.76,Wunderground PWS Mod,2013-06-24 09:25:00,
2013-06-24 05:30:00,70.4,70.4,30.10,N/A,-327680,0.0,0.0,100,0.00,,,0.76,Wunderground PWS Mod,2013-06-24 09:30:00,
2013-06-24 05:35:00,70.4,70.4,30.10,N/A,-327680,0.0,0.0,100,0.00,,,0.76,Wunderground PWS Mod,2013-06-24 09:35:00,
2013-06-24 05:40:00,70.4,70.4,30.10,N/A,-327680,0.0,0.0,100,0.00,,,0.76,Wunderground PWS Mod,2013-06-24 09:40:00,
2013-06-24 05:45:00,70.9,70.9,30.12,NE,40,0.0,2.0,100,0.01,,,0.76,Wunderground PWS Mod,2013-06-24 09:45:00,
2013-06-24 05:50:00,70.9,70.9,30.12,NE,40,0.0,2.0,100,0.01,,,0.76,Wunderground PWS Mod,2013-06-24 09:50:00,
2013-06-24 05:55:00,70.9,70.9,30.12,NE,40,0.0,2.0,100,0.01,,,0.76,Wunderground PWS Mod,2013-06-24 09:55:00,
2013-06-24 06:00:00,70.9,70.9,30.12,NE,40,0.0,2.0,100,0.01,,,0.76,Wunderground PWS Mod,2013-06-24 10:00:00,
2013-06-24 06:05:00,70.9,70.9,30.12,NE,40,0.0,2.0,100,0.01,,,0.76,Wunderground PWS Mod,2013-06-24 10:05:00,
2013-06-24 06:10:00,70.9,70.9,30.12,NE,40,0.0,2.0,100,0.01,,,0.76,Wunderground PWS Mod,2013-06-24 10:10:00,
2013-06-24 06:15:00,70.9,70.9,30.13,NE,40,0.0,2.0,100,0.01,,,0.76,Wunderground PWS Mod,2013-06-24 10:15:00,
2013-06-24 06:20:00,70.9,70.9,30.13,NE,40,0.0,2.0,100,0.01,,,0.76,Wunderground PWS Mod,2013-06-24 10:20:00,
2013-06-24 06:25:00,70.9,70.9,30.13,NE,40,0.0,2.0,100,0.01,,,0.76,Wunderground PWS Mod,2013-06-24 10:25:00,
2013-06-24 06:30:00,70.9,70.9,30.13,NE,40,0.0,2.0,100,0.01,,,0.76,Wunderground PWS Mod,2013-06-24 10:30:00,
2013-06-24 06:35:00,70.9,70.9,30.13,NE,40,0.0,2.0,100,0.01,,,0.76,Wunderground PWS Mod,2013-06-24 10:35:00,
2013-06-24 06:40:00,70.9,70.9,30.13,NE,40,0.0,2.0,100,0.01,,,0.76,Wunderground PWS Mod,2013-06-24 10:40:00,
2013-06-24 06:45:00,71.5,71.5,30.13,NE,40,0.0,3.0,100,0.00,,,0.76,Wunderground PWS Mod,2013-06-24 10:45:00,
2013-06-24 06:50:00,71.5,71.5,30.13,NE,40,0.0,3.0,100,0.00,,,0.76,Wunderground PWS Mod,2013-06-24 10:50:00,
2013-06-24 06:55:00,71.5,71.5,30.13,NE,40,0.0,3.0,100,0.00,,,0.76,Wunderground PWS Mod,2013-06-24 10:55:00,
2013-06-24 07:00:00,71.5,71.5,30.13,NE,40,0.0,3.0,100,0.00,,,0.76,Wunderground PWS Mod,2013-06-24 11:00:00,
2013-06-24 07:05:00,71.5,71.5,30.13,NE,40,0.0,3.0,100,0.00,,,0.76,Wunderground PWS Mod,2013-06-24 11:05:00,
2013-06-24 07:10:00,71.5,71.5,30.13,NE,40,0.0,3.0,100,0.00,,,0.76,Wunderground PWS Mod,2013-06-24 11:10:00,
2013-06-24 07:15:00,72.0,72.0,30.13,East,90,0.0,4.0,100,0.00,,,0.76,Wunderground PWS Mod,2013-06-24 11:15:00,
2013-06-24 07:20:00,72.0,72.0,30.13,East,90,0.0,4.0,100,0.00,,,0.76,Wunderground PWS Mod,2013-06-24 11:20:00,
2013-06-24 07:25:00,72.0,72.0,30.13,East,90,0.0,4.0,100,0.00,,,0.76,Wunderground PWS Mod,2013-06-24 11:25:00,
2013-06-24 07:30:00,72.0,72.0,30.13,East,90,0.0,4.0,100,0.00,,,0.76,Wunderground PWS Mod,2013-06-24 11:30:00,
2013-06-24 07:35:00,72.0,72.0,30.13,East,90,0.0,4.0,100,0.00,,,0.76,Wunderground PWS Mod,2013-06-24 11:35:00,
2013-06-24 07:40:00,72.0,72.0,30.13,East,90,0.0,4.0,100,0.00,,,0.76,Wunderground PWS Mod,2013-06-24 11:40:00,
2013-06-24 07:45:00,72.7,72.7,30.14,East,100,1.0,5.0,100,0.00,,,0.76,Wunderground PWS Mod,2013-06-24 11:45:00,
2013-06-24 07:50:00,72.7,72.7,30.14,East,100,1.0,5.0,100,0.00,,,0.76,Wunderground PWS Mod,2013-06-24 11:50:00,
2013-06-24 07:55:00,72.7,72.7,30.14,East,100,1.0,5.0,100,0.00,,,0.76,Wunderground PWS Mod,2013-06-24 11:55:00,
2013-06-24 08:00:00,72.7,72.7,30.14,East,100,1.0,5.0,100,0.00,,,0.76,Wunderground PWS Mod,2013-06-24 12:00:00,
2013-06-24 08:05:00,72.7,72.7,30.14,East,100,1.0,5.0,100,0.00,,,0.76,Wunderground PWS Mod,2013-06-24 12:05:00,
2013-06-24 08:10:00,72.7,72.7,30.14,East,100,1.0,5.0,100,0.00,,,0.76,Wunderground PWS Mod,2013-06-24 12:10:00,
2013-06-24 08:15:00,73.5,73.5,30.14,East,100,1.0,4.0,100,0.00,,,0.76,Wunderground PWS Mod,2013-06-24 12:15:00,
2013-06-24 08:20:00,73.5,73.5,30.14,East,100,1.0,4.0,100,0.00,,,0.76,Wunderground PWS Mod,2013-06-24 12:20:00,
2013-06-24 08:25:00,73.5,73.5,30.14,East,100,1.0,4.0,100,0.00,,,0.76,Wunderground PWS Mod,2013-06-24 12:25:00,
2013-06-24 08:30:00,73.5,73.5,30.14,East,100,1.0,4.0,100,0.00,,,0.76,Wunderground PWS Mod,2013-06-24 12:30:00,
2013-06-24 08:35:00,73.5,73.5,30.14,East,100,1.0,4.0,100,0.00,,,0.76,Wunderground PWS Mod,2013-06-24 12:35:00,
2013-06-24 08:40:00,73.5,73.5,30.14,East,100,1.0,4.0,100,0.00,,,0.76,Wunderground PWS Mod,2013-06-24 12:40:00,
2013-06-24 08:45:00,75.1,73.6,30.13,East,100,1.0,6.0,95,0.00,,,0.76,Wunderground PWS Mod,2013-06-24 12:45:00,
2013-06-24 08:50:00,75.1,73.6,30.13,East,100,1.0,6.0,95,0.00,,,0.76,Wunderground PWS Mod,2013-06-24 12:50:00,
2013-06-24 08:55:00,75.1,73.6,30.13,East,100,1.0,6.0,95,0.00,,,0.76,Wunderground PWS Mod,2013-06-24 12:55:00,
2013-06-24 09:00:00,75.1,73.6,30.13,East,100,1.0,6.0,95,0.00,,,0.76,Wunderground PWS Mod,2013-06-24 13:00:00,
2013-06-24 09:05:00,75.1,73.6,30.13,East,100,1.0,6.0,95,0.00,,,0.76,Wunderground PWS Mod,2013-06-24 13:05:00,
2013-06-24 09:10:00,75.1,73.6,30.13,East,100,1.0,6.0,95,0.00,,,0.76,Wunderground PWS Mod,2013-06-24 13:10:00,
2013-06-24 09:15:00,76.7,73.2,30.14,East,100,2.0,5.0,89,0.00,,,0.76,Wunderground PWS Mod,2013-06-24 13:15:00,
2013-06-24 09:20:00,76.7,73.2,30.14,East,100,2.0,5.0,89,0.00,,,0.76,Wunderground PWS Mod,2013-06-24 13:20:00,
2013-06-24 09:25:00,76.7,73.2,30.14,East,100,2.0,5.0,89,0.00,,,0.76,Wunderground PWS Mod,2013-06-24 13:25:00,
2013-06-24 09:30:00,76.7,73.2,30.14,East,100,2.0,5.0,89,0.00,,,0.76,Wunderground PWS Mod,2013-06-24 13:30:00,
2013-06-24 09:35:00,76.7,73.2,30.14,East,100,2.0,5.0,89,0.00,,,0.76,Wunderground PWS Mod,2013-06-24 13:35:00,
2013-06-24 09:40:00,76.7,73.2,30.14,East,100,2.0,5.0,89,0.00,,,0.76,Wunderground PWS Mod,2013-06-24 13:40:00,
2013-06-24 09:45:00,78.3,74.1,30.14,ESE,110,2.0,6.0,87,0.00,,,0.76,Wunderground PWS Mod,2013-06-24 13:45:00,
2013-06-24 09:50:00,78.3,74.1,30.14,ESE,110,2.0,6.0,87,0.00,,,0.76,Wunderground PWS Mod,2013-06-24 13:50:00,
2013-06-24 09:55:00,78.3,74.1,30.14,ESE,110,2.0,6.0,87,0.00,,,0.76,Wunderground PWS Mod,2013-06-24 13:55:00,
2013-06-24 10:00:00,78.3,74.1,30.14,ESE,110,2.0,6.0,87,0.00,,,0.76,Wunderground PWS Mod,2013-06-24 14:00:00,
2013-06-24 10:05:00,78.3,74.1,30.14,ESE,110,2.0,6.0,87,0.00,,,0.76,Wunderground PWS Mod,2013-06-24 14:05:00,
2013-06-24 10:10:00,78.3,74.1,30.14,ESE,110,2.0,6.0,87,0.00,,,0.76,Wunderground PWS Mod,2013-06-24 14:10:00,
2013-06-24 10:15:00,80.5,74.9,30.13,East,100,1.0,5.0,83,0.00,,,0.76,Wunderground PWS Mod,2013-06-24 14:15:00,
2013-06-24 10:20:00,80.5,74.9,30.13,East,100,1.0,5.0,83,0.00,,,0.76,Wunderground PWS Mod,2013-06-24 14:20:00,
2013-06-24 10:25:00,80.5,74.9,30.13,East,100,1.0,5.0,83,0.00,,,0.76,Wunderground PWS Mod,2013-06-24 14:25:00,
2013-06-24 10:30:00,80.5,74.9,30.13,East,100,1.0,5.0,83,0.00,,,0.76,Wunderground PWS Mod,2013-06-24 14:30:00,
2013-06-24 10:35:00,80.5,74.9,30.13,East,100,1.0,5.0,83,0.00,,,0.76,Wunderground PWS Mod,2013-06-24 14:35:00,
2013-06-24 10:40:00,80.5,74.9,30.13,East,100,1.0,5.0,83,0.00,,,0.76,Wunderground PWS Mod,2013-06-24 14:40:00,
2013-06-24 10:45:00,80.9,74.5,30.13,ESE,110,2.0,6.0,81,0.00,,,0.76,Wunderground PWS Mod,2013-06-24 14:45:00,
2013-06-24 10:50:00,80.9,74.5,30.13,ESE,110,2.0,6.0,81,0.00,,,0.76,Wunderground PWS Mod,2013-06-24 14:50:00,
2013-06-24 10:55:00,80.9,74.5,30.13,ESE,110,2.0,6.0,81,0.00,,,0.76,Wunderground PWS Mod,2013-06-24 14:55:00,
2013-06-24 11:00:00,80.9,74.5,30.13,ESE,110,2.0,6.0,81,0.00,,,0.76,Wunderground PWS Mod,2013-06-24 15:00:00,
2013-06-24 11:05:00,80.9,74.5,30.13,ESE,110,2.0,6.0,81,0.00,,,0.76,Wunderground PWS Mod,2013-06-24 15:05:00,
2013-06-24 11:10:00,80.9,74.5,30.13,ESE,110,2.0,6.0,81,0.00,,,0.76,Wunderground PWS Mod,2013-06-24 15:10:00,
2013-06-24 11:15:00,81.4,74.3,30.12,East,100,2.0,6.0,79,0.00,,,0.76,Wunderground PWS Mod,2013-06-24 15:15:00,
2013-06-24 11:20:00,81.4,74.3,30.12,East,100,2.0,6.0,79,0.00,,,0.76,Wunderground PWS Mod,2013-06-24 15:20:00,
2013-06-24 11:25:00,81.4,74.3,30.12,East,100,2.0,6.0,79,0.00,,,0.76,Wunderground PWS Mod,2013-06-24 15:25:00,
2013-06-24 11:30:00,81.4,74.3,30.12,East,100,2.0,6.0,79,0.00,,,0.76,Wunderground PWS Mod,2013-06-24 15:30:00,
2013-06-24 11:35:00,81.4,74.3,30.12,East,100,2.0,6.0,79,0.00,,,0.76,Wunderground PWS Mod,2013-06-24 15:35:00,
2013-06-24 11:40:00,81.4,74.3,30.12,East,100,2.0,6.0,79,0.00,,,0.76,Wunderground PWS Mod,2013-06-24 15:40:00,
2013-06-24 11:45:00,80.7,74.0,30.11,East,100,1.0,7.0,80,0.00,,,0.76,Wunderground PWS Mod,2013-06-24 15:45:00,
2013-06-24 11:50:00,80.7,74.0,30.11,East,100,1.0,7.0,80,0.00,,,0.76,Wunderground PWS Mod,2013-06-24 15:50:00,
2013-06-24 11:55:00,80.7,74.0,30.11,East,100,1.0,7.0,80,0.00,,,0.76,Wunderground PWS Mod,2013-06-24 15:55:00,
2013-06-24 12:00:00,80.7,74.0,30.11,East,100,1.0,7.0,80,0.00,,,0.76,Wunderground PWS Mod,2013-06-24 16:00:00,
2013-06-24 12:05:00,80.7,74.0,30.11,East,100,1.0,7.0,80,0.00,,,0.76,Wunderground PWS Mod,2013-06-24 16:05:00,
2013-06-24 12:10:00,80.7,74.0,30.11,East,100,1.0,7.0,80,0.00,,,0.76,Wunderground PWS Mod,2013-06-24 16:10:00,
2013-06-24 12:15:00,82.4,75.2,30.10,East,90,3.0,7.0,79,0.00,,,0.76,Wunderground PWS Mod,2013-06-24 16:15:00,
2013-06-24 12:20:00,82.4,75.2,30.10,East,90,3.0,7.0,79,0.00,,,0.76,Wunderground PWS Mod,2013-06-24 16:20:00,
2013-06-24 12:25:00,82.4,75.2,30.10,East,90,3.0,7.0,79,0.00,,,0.76,Wunderground PWS Mod,2013-06-24 16:25:00,
2013-06-24 12:30:00,82.4,75.2,30.10,East,90,3.0,7.0,79,0.00,,,0.76,Wunderground PWS Mod,2013-06-24 16:30:00,
2013-06-24 12:35:00,82.4,75.2,30.10,East,90,3.0,7.0,79,0.00,,,0.76,Wunderground PWS Mod,2013-06-24 16:35:00,
2013-06-24 12:40:00,82.4,75.2,30.10,East,90,3.0,7.0,79,0.00,,,0.76,Wunderground PWS Mod,2013-06-24 16:40:00,
2013-06-24 12:45:00,80.7,74.7,30.09,East,90,1.0,6.0,82,0.00,,,0.76,Wunderground PWS Mod,2013-06-24 16:45:00,
2013-06-24 12:50:00,80.7,74.7,30.09,East,90,1.0,6.0,82,0.00,,,0.76,Wunderground PWS Mod,2013-06-24 16:50:00,
2013-06-24 12:55:00,80.7,74.7,30.09,East,90,1.0,6.0,82,0.00,,,0.76,Wunderground PWS Mod,2013-06-24 16:55:00,
2013-06-24 13:00:00,80.7,74.7,30.09,East,90,1.0,6.0,82,0.00,,,0.76,Wunderground PWS Mod,2013-06-24 17:00:00,
2013-06-24 13:05:00,80.7,74.7,30.09,East,90,1.0,6.0,82,0.00,,,0.76,Wunderground PWS Mod,2013-06-24 17:05:00,
2013-06-24 13:10:00,80.7,74.7,30.09,East,90,1.0,6.0,82,0.00,,,0.76,Wunderground PWS Mod,2013-06-24 17:10:00,
2013-06-24 13:15:00,74.7,71.6,30.08,SE,140,2.0,12.0,90,0.45,,,0.76,Wunderground PWS Mod,2013-06-24 17:15:00,
2013-06-24 13:20:00,74.7,71.6,30.08,SE,140,2.0,12.0,90,0.45,,,0.76,Wunderground PWS Mod,2013-06-24 17:20:00,
2013-06-24 13:25:00,74.7,71.6,30.08,SE,140,2.0,12.0,90,0.45,,,0.76,Wunderground PWS Mod,2013-06-24 17:25:00,
2013-06-24 13:30:00,74.7,71.6,30.08,SE,140,2.0,12.0,90,0.45,,,0.76,Wunderground PWS Mod,2013-06-24 17:30:00,
2013-06-24 13:35:00,74.7,71.6,30.08,SE,140,2.0,12.0,90,0.45,,,0.76,Wunderground PWS Mod,2013-06-24 17:35:00,
2013-06-24 13:40:00,74.7,71.6,30.08,SE,140,2.0,12.0,90,0.45,,,0.76,Wunderground PWS Mod,2013-06-24 17:40:00,
2013-06-24 13:45:00,71.8,70.3,30.10,NE,50,2.0,10.0,95,0.52,,,0.76,Wunderground PWS Mod,2013-06-24 17:45:00,
2013-06-24 13:50:00,71.8,70.3,30.10,NE,50,2.0,10.0,95,0.52,,,0.76,Wunderground PWS Mod,2013-06-24 17:50:00,
2013-06-24 13:55:00,71.8,70.3,30.10,NE,50,2.0,10.0,95,0.52,,,0.76,Wunderground PWS Mod,2013-06-24 17:55:00,
2013-06-24 14:00:00,71.8,70.3,30.10,NE,50,2.0,10.0,95,0.52,,,0.76,Wunderground PWS Mod,2013-06-24 18:00:00,
2013-06-24 14:05:00,71.8,70.3,30.10,NE,50,2.0,10.0,95,0.52,,,0.76,Wunderground PWS Mod,2013-06-24 18:05:00,
2013-06-24 14:10:00,71.8,70.3,30.10,NE,50,2.0,10.0,95,0.52,,,0.76,Wunderground PWS Mod,2013-06-24 18:10:00,
2013-06-24 14:15:00,68.9,67.4,30.08,East,80,3.0,18.0,95,0.27,,,0.76,Wunderground PWS Mod,2013-06-24 18:15:00,
2013-06-24 14:20:00,68.9,67.4,30.08,East,80,3.0,18.0,95,0.27,,,0.76,Wunderground PWS Mod,2013-06-24 18:20:00,
2013-06-24 14:25:00,68.9,67.4,30.08,East,80,3.0,18.0,95,0.27,,,0.76,Wunderground PWS Mod,2013-06-24 18:25:00,
2013-06-24 14:30:00,68.9,67.4,30.08,East,80,3.0,18.0,95,0.27,,,0.76,Wunderground PWS Mod,2013-06-24 18:30:00,
2013-06-24 14:35:00,68.9,67.4,30.08,East,80,3.0,18.0,95,0.27,,,0.76,Wunderground PWS Mod,2013-06-24 18:35:00,
2013-06-24 14:40:00,68.9,67.4,30.08,East,80,3.0,18.0,95,0.27,,,0.76,Wunderground PWS Mod,2013-06-24 18:40:00,
2013-06-24 14:45:00,68.6,67.7,30.08,East,80,1.0,4.0,97,0.21,,,0.76,Wunderground PWS Mod,2013-06-24 18:45:00,
2013-06-24 14:50:00,68.6,67.7,30.08,East,80,1.0,4.0,97,0.21,,,0.76,Wunderground PWS Mod,2013-06-24 18:50:00,
2013-06-24 14:55:00,68.6,67.7,30.08,East,80,1.0,4.0,97,0.21,,,0.76,Wunderground PWS Mod,2013-06-24 18:55:00,
2013-06-24 15:00:00,68.6,67.7,30.08,East,80,1.0,4.0,97,0.21,,,0.76,Wunderground PWS Mod,2013-06-24 19:00:00,
2013-06-24 15:05:00,68.6,67.7,30.08,East,80,1.0,4.0,97,0.21,,,0.76,Wunderground PWS Mod,2013-06-24 19:05:00,
2013-06-24 15:10:00,68.6,67.7,30.08,East,80,1.0,4.0,97,0.21,,,0.76,Wunderground PWS Mod,2013-06-24 19:10:00,
2013-06-24 15:15:00,68.6,68.0,30.09,East,80,1.0,5.0,98,0.02,,,0.76,Wunderground PWS Mod,2013-06-24 19:15:00,
2013-06-24 15:20:00,68.6,68.0,30.09,East,80,1.0,5.0,98,0.02,,,0.76,Wunderground PWS Mod,2013-06-24 19:20:00,
2013-06-24 15:25:00,68.6,68.0,30.09,East,80,1.0,5.0,98,0.02,,,0.76,Wunderground PWS Mod,2013-06-24 19:25:00,
2013-06-24 15:30:00,68.6,68.0,30.09,East,80,1.0,5.0,98,0.02,,,0.76,Wunderground PWS Mod,2013-06-24 19:30:00,
2013-06-24 15:35:00,68.6,68.0,30.09,East,80,1.0,5.0,98,0.02,,,0.76,Wunderground PWS Mod,2013-06-24 19:35:00,
2013-06-24 15:40:00,68.6,68.0,30.09,East,80,1.0,5.0,98,0.02,,,0.76,Wunderground PWS Mod,2013-06-24 19:40:00,
2013-06-24 15:45:00,68.8,68.2,30.07,ENE,70,2.0,9.0,98,0.02,,,0.76,Wunderground PWS Mod,2013-06-24 19:45:00,
2013-06-24 15:50:00,68.8,68.2,30.07,ENE,70,2.0,9.0,98,0.02,,,0.76,Wunderground PWS Mod,2013-06-24 19:50:00,
2013-06-24 15:55:00,68.8,68.2,30.07,ENE,70,2.0,9.0,98,0.02,,,0.76,Wunderground PWS Mod,2013-06-24 19:55:00,
2013-06-24 16:00:00,68.8,68.2,30.07,ENE,70,2.0,9.0,98,0.02,,,0.76,Wunderground PWS Mod,2013-06-24 20:00:00,
2013-06-24 16:05:00,68.8,68.2,30.07,ENE,70,2.0,9.0,98,0.02,,,0.76,Wunderground PWS Mod,2013-06-24 20:05:00,
2013-06-24 16:10:00,68.8,68.2,30.07,ENE,70,2.0,9.0,98,0.02,,,0.76,Wunderground PWS Mod,2013-06-24 20:10:00,
2013-06-24 16:15:00,70.1,69.8,30.06,ENE,60,0.0,4.0,99,0.01,,,0.76,Wunderground PWS Mod,2013-06-24 20:15:00,
2013-06-24 16:20:00,70.1,69.8,30.06,ENE,60,0.0,4.0,99,0.01,,,0.76,Wunderground PWS Mod,2013-06-24 20:20:00,
2013-06-24 16:25:00,70.1,69.8,30.06,ENE,60,0.0,4.0,99,0.01,,,0.76,Wunderground PWS Mod,2013-06-24 20:25:00,
2013-06-24 16:30:00,70.1,69.8,30.06,ENE,60,0.0,4.0,99,0.01,,,0.76,Wunderground PWS Mod,2013-06-24 20:30:00,
2013-06-24 16:35:00,70.1,69.8,30.06,ENE,60,0.0,4.0,99,0.01,,,0.76,Wunderground PWS Mod,2013-06-24 20:35:00,
2013-06-24 16:40:00,70.1,69.8,30.06,ENE,60,0.0,4.0,99,0.01,,,0.76,Wunderground PWS Mod,2013-06-24 20:40:00,
2013-06-24 16:45:00,71.3,71.0,30.06,East,80,1.0,5.0,99,0.00,,,0.76,Wunderground PWS Mod,2013-06-24 20:45:00,
2013-06-24 16:50:00,71.3,71.0,30.06,East,80,1.0,5.0,99,0.00,,,0.76,Wunderground PWS Mod,2013-06-24 20:50:00,
2013-06-24 16:55:00,71.3,71.0,30.06,East,80,1.0,5.0,99,0.00,,,0.76,Wunderground PWS Mod,2013-06-24 20:55:00,
2013-06-24 17:00:00,71.3,71.0,30.06,East,80,1.0,5.0,99,0.00,,,0.76,Wunderground PWS Mod,2013-06-24 21:00:00,
2013-06-24 17:05:00,71.3,71.0,30.06,East,80,1.0,5.0,99,0.00,,,0.76,Wunderground PWS Mod,2013-06-24 21:05:00,
2013-06-24 17:10:00,71.3,71.0,30.06,East,80,1.0,5.0,99,0.00,,,0.76,Wunderground PWS Mod,2013-06-24 21:10:00,
2013-06-24 17:15:00,73.0,72.1,30.05,East,100,1.0,5.0,97,0.00,,,0.76,Wunderground PWS Mod,2013-06-24 21:15:00,
2013-06-24 17:20:00,73.0,72.1,30.05,East,100,1.0,5.0,97,0.00,,,0.76,Wunderground PWS Mod,2013-06-24 21:20:00,
2013-06-24 17:25:00,73.0,72.1,30.05,East,100,1.0,5.0,97,0.00,,,0.76,Wunderground PWS Mod,2013-06-24 21:25:00,
2013-06-24 17:30:00,73.0,72.1,30.05,East,100,1.0,5.0,97,0.00,,,0.76,Wunderground PWS Mod,2013-06-24 21:30:00,
2013-06-24 17:35:00,73.0,72.1,30.05,East,100,1.0,5.0,97,0.00,,,0.76,Wunderground PWS Mod,2013-06-24 21:35:00,
2013-06-24 17:40:00,73.0,72.1,30.05,East,100,1.0,5.0,97,0.00,,,0.76,Wunderground PWS Mod,2013-06-24 21:40:00,
2013-06-24 17:45:00,73.5,72.3,30.05,East,80,1.0,5.0,96,0.00,,,0.76,Wunderground PWS Mod,2013-06-24 21:45:00,
2013-06-24 17:50:00,73.5,72.3,30.05,East,80,1.0,5.0,96,0.00,,,0.76,Wunderground PWS Mod,2013-06-24 21:50:00,
2013-06-24 17:55:00,73.5,72.3,30.05,East,80,1.0,5.0,96,0.00,,,0.76,Wunderground PWS Mod,2013-06-24 21:55:00,
2013-06-24 18:00:00,73.5,72.3,30.05,East,80,1.0,5.0,96,0.00,,,0.76,Wunderground PWS Mod,2013-06-24 22:00:00,
2013-06-24 18:05:00,73.5,72.3,30.05,East,80,1.0,5.0,96,0.00,,,0.76,Wunderground PWS Mod,2013-06-24 22:05:00,
2013-06-24 18:10:00,73.5,72.3,30.05,East,80,1.0,5.0,96,0.00,,,0.76,Wunderground PWS Mod,2013-06-24 22:10:00,
2013-06-24 18:15:00,73.5,71.7,30.04,East,80,1.0,5.0,94,0.00,,,0.76,Wunderground PWS Mod,2013-06-24 22:15:00,
2013-06-24 18:20:00,73.5,71.7,30.04,East,80,1.0,5.0,94,0.00,,,0.76,Wunderground PWS Mod,2013-06-24 22:20:00,
2013-06-24 18:25:00,73.5,71.7,30.04,East,80,1.0,5.0,94,0.00,,,0.76,Wunderground PWS Mod,2013-06-24 22:25:00,
2013-06-24 18:30:00,73.5,71.7,30.04,East,80,1.0,5.0,94,0.00,,,0.76,Wunderground PWS Mod,2013-06-24 22:30:00,
2013-06-24 18:35:00,73.5,71.7,30.04,East,80,1.0,5.0,94,0.00,,,0.76,Wunderground PWS Mod,2013-06-24 22:35:00,
2013-06-24 18:40:00,73.5,71.7,30.04,East,80,1.0,5.0,94,0.00,,,0.76,Wunderground PWS Mod,2013-06-24 22:40:00,
2013-06-24 22:25:00,69.8,69.2,30.06,East,90,0.0,2.0,98,0.00,,,0.76,Wunderground PWS Mod,2013-06-25 02:25:00,
2013-06-24 22:30:00,69.8,69.2,30.06,East,90,0.0,2.0,98,0.00,,,0.76,Wunderground PWS Mod,2013-06-25 02:30:00,
2013-06-24 22:35:00,69.8,69.2,30.06,East,90,0.0,2.0,98,0.00,,,0.76,Wunderground PWS Mod,2013-06-25 02:35:00,
2013-06-24 22:40:00,69.8,69.2,30.06,East,90,0.0,2.0,98,0.00,,,0.76,Wunderground PWS Mod,2013-06-25 02:40:00,
2013-06-24 22:45:00,69.6,69.3,30.05,East,90,0.0,2.0,99,0.00,,,0.76,Wunderground PWS Mod,2013-06-25 02:45:00,
2013-06-24 22:50:00,69.6,69.3,30.05,East,90,0.0,2.0,99,0.00,,,0.76,Wunderground PWS Mod,2013-06-25 02:50:00,
2013-06-24 22:55:00,69.6,69.3,30.05,East,90,0.0,2.0,99,0.00,,,0.76,Wunderground PWS Mod,2013-06-25 02:55:00,
2013-06-24 23:00:00,69.6,69.3,30.05,East,90,0.0,2.0,99,0.00,,,0.76,Wunderground PWS Mod,2013-06-25 03:00:00,
2013-06-24 23:05:00,69.6,69.3,30.05,East,90,0.0,2.0,99,0.00,,,0.76,Wunderground PWS Mod,2013-06-25 03:05:00,
2013-06-24 23:10:00,69.6,69.3,30.05,East,90,0.0,2.0,99,0.00,,,0.76,Wunderground PWS Mod,2013-06-25 03:10:00,
2013-06-24 23:15:00,69.4,69.1,30.05,East,90,0.0,2.0,99,0.00,,,0.76,Wunderground PWS Mod,2013-06-25 03:15:00,
2013-06-24 23:20:00,69.4,69.1,30.05,East,90,0.0,2.0,99,0.00,,,0.76,Wunderground PWS Mod,2013-06-25 03:20:00,
2013-06-24 23:25:00,69.4,69.1,30.05,East,90,0.0,2.0,99,0.00,,,0.76,Wunderground PWS Mod,2013-06-25 03:25:00,
2013-06-24 23:35:00,69.4,69.1,30.05,East,90,0.0,2.0,99,0.00,,,0.76,Wunderground PWS Mod,2013-06-25 03:35:00,
2013-06-24 23:40:00,69.4,69.1,30.05,East,90,0.0,2.0,99,0.00,,,0.76,Wunderground PWS Mod,2013-06-25 03:40:00,
2013-06-24 23:45:00,68.9,68.6,30.05,N/A,-327680,0.0,0.0,99,0.00,,,0.76,Wunderground PWS Mod,2013-06-25 03:45:00,
2013-06-24 23:50:00,68.9,68.6,30.05,N/A,-327680,0.0,0.0,99,0.00,,,0.76,Wunderground PWS Mod,2013-06-25 03:50:00,
2013-06-24 23:55:00,68.9,68.6,30.05,N/A,-327680,0.0,0.0,99,0.00,,,0.76,Wunderground PWS Mod,2013-06-25 03:55:00,